createdAt,value
2022-10-06T00:00:16.430Z,1011.61
2022-10-06T00:01:02.473Z,1011.21
2022-10-06T00:01:48.440Z,1011.78
2022-10-06T00:02:34.437Z,1011.61
2022-10-06T00:03:20.371Z,1011.51
2022-10-06T00:04:06.356Z,1011.51
2022-10-06T00:04:52.411Z,1011.41
2022-10-06T00:05:38.394Z,1011.51
2022-10-06T00:06:24.362Z,1011.51
2022-10-06T00:07:10.384Z,1011.51
2022-10-06T00:07:56.422Z,1011.51
2022-10-06T00:08:42.385Z,1011.61
2022-10-06T00:09:28.382Z,1011.31
2022-10-06T00:10:14.449Z,1011.31
2022-10-06T00:11:00.573Z,1011.61
2022-10-06T00:11:46.910Z,1011.72
2022-10-06T00:12:32.415Z,1011.61
2022-10-06T00:13:18.445Z,1011.61
2022-10-06T00:14:04.482Z,1011.51
2022-10-06T00:14:50.595Z,1011.41
2022-10-06T00:15:36.618Z,1011.72
2022-10-06T00:16:22.682Z,1011.61
2022-10-06T00:17:08.437Z,1011.61
2022-10-06T00:17:54.579Z,1011.41
2022-10-06T00:18:40.501Z,1011.61
2022-10-06T00:19:26.605Z,1011.61
2022-10-06T00:20:12.564Z,1011.61
2022-10-06T00:20:58.522Z,1011.51
2022-10-06T00:21:44.500Z,1011.41
2022-10-06T00:22:30.643Z,1011.72
2022-10-06T00:23:16.517Z,1011.72
2022-10-06T00:24:02.513Z,1011.31
2022-10-06T00:24:48.486Z,1011.41
2022-10-06T00:25:34.514Z,1011.41
2022-10-06T00:26:20.525Z,1011.41
2022-10-06T00:27:06.494Z,1011.41
2022-10-06T00:27:52.554Z,1011.72
2022-10-06T00:28:38.553Z,1011.51
2022-10-06T00:29:24.522Z,1011.51
2022-10-06T00:30:10.593Z,1011.51
2022-10-06T00:30:56.746Z,1011.51
2022-10-06T00:31:42.546Z,1011.41
2022-10-06T00:32:28.611Z,1011.51
2022-10-06T00:33:14.589Z,1011.51
2022-10-06T00:34:00.619Z,1011.61
2022-10-06T00:34:47.143Z,1011.31
2022-10-06T00:35:32.978Z,1011.72
2022-10-06T00:36:18.587Z,1011.72
2022-10-06T00:37:04.617Z,1011.61
2022-10-06T00:37:50.586Z,1011.61
2022-10-06T00:38:36.568Z,1011.61
2022-10-06T00:39:22.542Z,1011.61
2022-10-06T00:40:08.546Z,1011.61
2022-10-06T00:40:54.605Z,1011.61
2022-10-06T00:41:40.592Z,1011.51
2022-10-06T00:42:26.641Z,1011.78
2022-10-06T00:43:12.606Z,1011.78
2022-10-06T00:43:58.599Z,1011.78
2022-10-06T00:44:44.605Z,1011.61
2022-10-06T00:45:30.673Z,1011.99
2022-10-06T00:46:16.662Z,1011.99
2022-10-06T00:47:02.686Z,1011.89
2022-10-06T00:47:48.691Z,1011.89
2022-10-06T00:48:34.586Z,1011.89
2022-10-06T00:49:20.645Z,1011.89
2022-10-06T00:50:06.604Z,1011.89
2022-10-06T00:50:52.676Z,1011.99
2022-10-06T00:51:38.675Z,1011.99
2022-10-06T00:52:24.640Z,1011.89
2022-10-06T00:53:10.596Z,1011.89
2022-10-06T00:53:56.703Z,1011.99
2022-10-06T00:54:42.771Z,1011.89
2022-10-06T00:55:28.637Z,1011.78
2022-10-06T00:56:14.711Z,1011.78
2022-10-06T00:57:00.676Z,1011.89
2022-10-06T00:57:47.257Z,1011.89
2022-10-06T00:58:32.721Z,1011.99
2022-10-06T00:59:18.725Z,1011.99
2022-10-06T01:00:04.719Z,1011.89
2022-10-06T01:00:50.702Z,1011.99
2022-10-06T01:01:36.687Z,1012.19
2022-10-06T01:02:22.667Z,1012.09
2022-10-06T01:03:08.903Z,1012.09
2022-10-06T01:03:54.699Z,1012.19
2022-10-06T01:04:40.703Z,1012.19
2022-10-06T01:05:26.653Z,1012.09
2022-10-06T01:06:12.656Z,1012.09
2022-10-06T01:06:58.685Z,1011.99
2022-10-06T01:07:44.742Z,1012.09
2022-10-06T01:08:31.035Z,1012.29
2022-10-06T01:09:16.775Z,1012.29
2022-10-06T01:10:02.851Z,1012.09
2022-10-06T01:10:48.805Z,1012.19
2022-10-06T01:11:34.710Z,1012.19
2022-10-06T01:12:20.822Z,1012.29
2022-10-06T01:13:06.719Z,1012.29
2022-10-06T01:13:52.739Z,1012.19
2022-10-06T01:14:38.850Z,1011.99
2022-10-06T01:15:24.808Z,1012.19
2022-10-06T01:16:10.766Z,1012.19
2022-10-06T01:16:56.763Z,1012.09
2022-10-06T01:17:42.761Z,1012.49
2022-10-06T01:18:29.159Z,1012.19
2022-10-06T01:19:14.808Z,1012.19
2022-10-06T01:20:00.820Z,1012.09
2022-10-06T01:20:47.410Z,1012.29
2022-10-06T01:21:32.805Z,1012.29
2022-10-06T01:22:18.904Z,1012.29
2022-10-06T01:23:04.742Z,1012.39
2022-10-06T01:23:50.854Z,1012.19
2022-10-06T01:24:36.835Z,1012.19
2022-10-06T01:25:22.755Z,1012.39
2022-10-06T01:26:08.778Z,1012.39
2022-10-06T01:26:54.883Z,1012.09
2022-10-06T01:27:40.876Z,1012.29
2022-10-06T01:28:27.530Z,1012.29
2022-10-06T01:29:12.796Z,1012.29
2022-10-06T01:29:58.798Z,1012.19
2022-10-06T01:30:44.881Z,1012.19
2022-10-06T01:31:30.907Z,1012.19
2022-10-06T01:32:16.842Z,1012.19
2022-10-06T01:33:03.040Z,1012.29
2022-10-06T01:33:48.858Z,1012.29
2022-10-06T01:34:34.797Z,1012.60
2022-10-06T01:35:20.865Z,1012.09
2022-10-06T01:36:06.871Z,1012.09
2022-10-06T01:36:52.965Z,1012.60
2022-10-06T01:37:38.852Z,1012.19
2022-10-06T01:38:24.834Z,1012.29
2022-10-06T01:39:10.814Z,1012.29
2022-10-06T01:39:56.889Z,1012.39
2022-10-06T01:40:42.884Z,1012.39
2022-10-06T01:41:28.821Z,1012.29
2022-10-06T01:42:14.868Z,1012.29
2022-10-06T01:43:00.861Z,1012.29
2022-10-06T01:43:47.538Z,1012.29
2022-10-06T01:44:32.950Z,1012.29
2022-10-06T01:45:18.968Z,1012.29
2022-10-06T01:46:04.908Z,1012.39
2022-10-06T01:46:50.977Z,1012.49
2022-10-06T01:47:36.906Z,1012.29
2022-10-06T01:48:22.917Z,1012.49
2022-10-06T01:49:08.924Z,1012.49
2022-10-06T01:49:55.050Z,1012.29
2022-10-06T01:50:40.903Z,1012.49
2022-10-06T01:51:26.919Z,1012.49
2022-10-06T01:52:13.261Z,1012.49
2022-10-06T01:52:58.946Z,1012.60
2022-10-06T01:53:44.890Z,1012.60
2022-10-06T01:54:31.122Z,1012.60
2022-10-06T01:55:16.900Z,1012.60
2022-10-06T01:56:03.076Z,1012.49
2022-10-06T01:56:48.957Z,1012.49
2022-10-06T01:57:34.873Z,1012.70
2022-10-06T01:58:20.949Z,1012.60
2022-10-06T01:59:06.951Z,1012.60
2022-10-06T01:59:54.748Z,1012.49
2022-10-06T02:00:39.021Z,1012.80
2022-10-06T02:01:24.990Z,1012.60
2022-10-06T02:02:10.965Z,1012.60
2022-10-06T02:02:56.989Z,1012.60
2022-10-06T02:03:43.087Z,1012.80
2022-10-06T02:04:28.989Z,1012.49
2022-10-06T02:05:14.961Z,1012.49
2022-10-06T02:06:01.207Z,1012.70
2022-10-06T02:06:47.716Z,1012.39
2022-10-06T02:07:32.977Z,1012.80
2022-10-06T02:08:18.970Z,1012.80
2022-10-06T02:09:04.979Z,1012.60
2022-10-06T02:09:51.041Z,1012.60
2022-10-06T02:10:37.019Z,1012.60
2022-10-06T02:11:23.057Z,1012.80
2022-10-06T02:12:08.963Z,1012.80
2022-10-06T02:12:55.039Z,1012.60
2022-10-06T02:13:41.031Z,1012.70
2022-10-06T02:14:27.000Z,1012.70
2022-10-06T02:15:13.387Z,1012.70
2022-10-06T02:15:59.107Z,1012.90
2022-10-06T02:16:44.977Z,1012.70
2022-10-06T02:17:31.002Z,1012.90
2022-10-06T02:18:17.032Z,1012.90
2022-10-06T02:19:03.128Z,1012.90
2022-10-06T02:19:49.015Z,1013.00
2022-10-06T02:20:35.122Z,1012.70
2022-10-06T02:21:21.024Z,1013.00
2022-10-06T02:22:07.049Z,1013.00
2022-10-06T02:22:53.049Z,1013.00
2022-10-06T02:23:39.135Z,1012.80
2022-10-06T02:24:25.042Z,1012.90
2022-10-06T02:25:11.071Z,1012.90
2022-10-06T02:25:57.062Z,1012.70
2022-10-06T02:26:43.439Z,1013.10
2022-10-06T02:27:29.049Z,1013.21
2022-10-06T02:28:15.167Z,1013.21
2022-10-06T02:29:01.046Z,1013.00
2022-10-06T02:29:47.540Z,1013.10
2022-10-06T02:30:33.129Z,1013.21
2022-10-06T02:31:19.258Z,1013.21
2022-10-06T02:32:05.154Z,1013.31
2022-10-06T02:32:51.120Z,1013.31
2022-10-06T02:33:37.084Z,1013.00
2022-10-06T02:34:23.090Z,1013.21
2022-10-06T02:35:09.126Z,1013.21
2022-10-06T02:35:55.270Z,1013.51
2022-10-06T02:36:41.105Z,1013.10
2022-10-06T02:37:27.111Z,1013.41
2022-10-06T02:38:13.367Z,1013.41
2022-10-06T02:38:59.112Z,1013.21
2022-10-06T02:39:45.236Z,1013.51
2022-10-06T02:40:31.226Z,1013.41
2022-10-06T02:41:17.092Z,1013.41
2022-10-06T02:42:03.306Z,1013.51
2022-10-06T02:42:49.111Z,1013.61
2022-10-06T02:43:35.201Z,1013.61
2022-10-06T02:44:21.157Z,1013.61
2022-10-06T02:45:07.288Z,1013.61
2022-10-06T02:45:53.203Z,1013.71
2022-10-06T02:46:39.274Z,1013.82
2022-10-06T02:47:25.148Z,1013.98
2022-10-06T02:48:11.164Z,1013.98
2022-10-06T02:48:57.177Z,1013.82
2022-10-06T02:49:43.462Z,1013.71
2022-10-06T02:50:29.220Z,1013.82
2022-10-06T02:51:15.134Z,1013.82
2022-10-06T02:52:01.180Z,1013.71
2022-10-06T02:52:47.644Z,1013.71
2022-10-06T02:53:33.206Z,1013.88
2022-10-06T02:54:19.220Z,1013.88
2022-10-06T02:55:05.201Z,1013.61
2022-10-06T02:55:51.238Z,1013.61
2022-10-06T02:56:37.205Z,1013.82
2022-10-06T02:57:23.170Z,1013.98
2022-10-06T02:58:09.157Z,1013.98
2022-10-06T02:58:55.166Z,1013.88
2022-10-06T02:59:41.193Z,1013.82
2022-10-06T03:00:27.215Z,1013.71
2022-10-06T03:01:13.521Z,1013.71
2022-10-06T03:01:59.360Z,1013.82
2022-10-06T03:02:45.372Z,1013.71
2022-10-06T03:03:31.165Z,1013.88
2022-10-06T03:04:17.221Z,1013.88
2022-10-06T03:05:02.506Z,1013.88
2022-10-06T03:05:49.234Z,1013.98
2022-10-06T03:06:35.178Z,1014.09
2022-10-06T03:07:21.243Z,1013.98
2022-10-06T03:08:07.184Z,1013.98
2022-10-06T03:08:53.221Z,1013.98
2022-10-06T03:09:39.182Z,1013.98
2022-10-06T03:10:25.211Z,1013.98
2022-10-06T03:11:11.226Z,1013.98
2022-10-06T03:11:57.233Z,1014.19
2022-10-06T03:12:43.433Z,1014.19
2022-10-06T03:13:29.215Z,1014.09
2022-10-06T03:14:20.542Z,1014.09
2022-10-06T03:15:01.790Z,1014.19
2022-10-06T03:15:47.567Z,1013.98
2022-10-06T03:16:33.333Z,1013.98
2022-10-06T03:17:19.257Z,1013.98
2022-10-06T03:18:05.219Z,1014.09
2022-10-06T03:18:51.236Z,1014.19
2022-10-06T03:19:37.254Z,1014.29
2022-10-06T03:20:23.255Z,1014.09
2022-10-06T03:21:09.268Z,1014.09
2022-10-06T03:21:55.276Z,1014.19
2022-10-06T03:22:41.251Z,1014.29
2022-10-06T03:23:27.258Z,1014.29
2022-10-06T03:24:13.519Z,1014.29
2022-10-06T03:24:59.282Z,1014.19
2022-10-06T03:25:45.323Z,1014.09
2022-10-06T03:26:31.342Z,1014.09
2022-10-06T03:27:17.300Z,1014.09
2022-10-06T03:28:03.373Z,1014.09
2022-10-06T03:28:49.387Z,1014.19
2022-10-06T03:29:35.353Z,1014.39
2022-10-06T03:30:21.354Z,1014.19
2022-10-06T03:31:07.384Z,1014.19
2022-10-06T03:31:53.293Z,1014.29
2022-10-06T03:32:39.349Z,1014.19
2022-10-06T03:33:25.452Z,1014.39
2022-10-06T03:34:11.368Z,1014.39
2022-10-06T03:34:57.346Z,1014.49
2022-10-06T03:35:43.643Z,1014.39
2022-10-06T03:36:29.351Z,1014.49
2022-10-06T03:37:15.310Z,1014.49
2022-10-06T03:38:01.747Z,1014.39
2022-10-06T03:38:47.535Z,1014.49
2022-10-06T03:39:33.456Z,1014.29
2022-10-06T03:40:19.331Z,1014.29
2022-10-06T03:41:05.500Z,1014.49
2022-10-06T03:41:51.366Z,1014.59
2022-10-06T03:42:37.404Z,1014.49
2022-10-06T03:43:23.391Z,1014.59
2022-10-06T03:44:09.438Z,1014.59
2022-10-06T03:44:55.381Z,1014.49
2022-10-06T03:45:41.502Z,1014.59
2022-10-06T03:46:27.403Z,1014.70
2022-10-06T03:47:17.171Z,1014.70
2022-10-06T03:47:59.439Z,1014.59
2022-10-06T03:48:45.399Z,1014.70
2022-10-06T03:49:31.424Z,1014.59
2022-10-06T03:50:17.446Z,1014.59
2022-10-06T03:51:03.520Z,1014.39
2022-10-06T03:51:49.405Z,1014.49
2022-10-06T03:52:35.466Z,1014.70
2022-10-06T03:53:21.428Z,1014.39
2022-10-06T03:54:07.390Z,1014.39
2022-10-06T03:54:53.506Z,1014.80
2022-10-06T03:55:39.414Z,1014.49
2022-10-06T03:56:25.462Z,1014.70
2022-10-06T03:57:11.467Z,1014.70
2022-10-06T03:57:57.454Z,1014.59
2022-10-06T03:58:43.991Z,1014.70
2022-10-06T03:59:29.418Z,1014.70
2022-10-06T04:00:15.506Z,1014.70
2022-10-06T04:01:01.550Z,1014.90
2022-10-06T04:01:47.614Z,1014.90
2022-10-06T04:02:33.488Z,1015.00
2022-10-06T04:03:19.454Z,1015.00
2022-10-06T04:04:05.512Z,1014.80
2022-10-06T04:04:51.481Z,1014.80
2022-10-06T04:05:37.492Z,1014.70
2022-10-06T04:06:23.454Z,1014.80
2022-10-06T04:07:09.464Z,1014.80
2022-10-06T04:07:55.513Z,1015.10
2022-10-06T04:08:41.566Z,1015.20
2022-10-06T04:09:27.438Z,1014.80
2022-10-06T04:10:13.689Z,1014.80
2022-10-06T04:10:59.501Z,1015.10
2022-10-06T04:11:45.466Z,1015.00
2022-10-06T04:12:31.541Z,1015.10
2022-10-06T04:13:17.469Z,1015.10
2022-10-06T04:14:03.571Z,1015.00
2022-10-06T04:14:49.507Z,1014.70
2022-10-06T04:15:35.625Z,1015.00
2022-10-06T04:16:21.548Z,1015.10
2022-10-06T04:17:07.543Z,1015.10
2022-10-06T04:17:53.491Z,1015.00
2022-10-06T04:18:39.527Z,1015.10
2022-10-06T04:19:25.567Z,1015.00
2022-10-06T04:20:11.526Z,1015.00
2022-10-06T04:20:57.502Z,1015.00
2022-10-06T04:21:43.755Z,1015.20
2022-10-06T04:22:29.529Z,1015.20
2022-10-06T04:23:15.521Z,1015.20
2022-10-06T04:24:01.580Z,1015.10
2022-10-06T04:24:47.620Z,1015.31
2022-10-06T04:25:33.545Z,1015.10
2022-10-06T04:26:19.558Z,1015.10
2022-10-06T04:27:05.596Z,1015.10
2022-10-06T04:27:51.620Z,1015.31
2022-10-06T04:28:37.550Z,1015.41
2022-10-06T04:29:23.552Z,1015.20
2022-10-06T04:30:09.667Z,1015.20
2022-10-06T04:30:55.623Z,1015.41
2022-10-06T04:31:41.668Z,1015.20
2022-10-06T04:32:27.578Z,1015.31
2022-10-06T04:33:13.803Z,1015.31
2022-10-06T04:33:59.652Z,1015.20
2022-10-06T04:34:45.566Z,1015.20
2022-10-06T04:35:31.668Z,1015.41
2022-10-06T04:36:17.582Z,1015.41
2022-10-06T04:37:03.627Z,1015.41
2022-10-06T04:37:49.690Z,1015.31
2022-10-06T04:38:35.663Z,1015.51
2022-10-06T04:39:21.660Z,1015.51
2022-10-06T04:40:07.702Z,1015.51
2022-10-06T04:40:53.607Z,1015.31
2022-10-06T04:41:39.603Z,1015.41
2022-10-06T04:42:25.640Z,1015.41
2022-10-06T04:43:11.643Z,1015.41
2022-10-06T04:43:57.637Z,1015.31
2022-10-06T04:44:43.928Z,1015.51
2022-10-06T04:45:29.994Z,1015.61
2022-10-06T04:46:40.949Z,1015.61
2022-10-06T04:47:01.828Z,1015.41
2022-10-06T04:47:47.655Z,1015.31
2022-10-06T04:48:33.634Z,1015.41
2022-10-06T04:49:20.488Z,1015.41
2022-10-06T04:50:05.716Z,1015.41
2022-10-06T04:50:51.700Z,1015.41
2022-10-06T04:51:37.698Z,1015.51
2022-10-06T04:52:23.673Z,1015.61
2022-10-06T04:53:09.730Z,1015.61
2022-10-06T04:53:55.678Z,1015.31
2022-10-06T04:54:41.800Z,1015.41
2022-10-06T04:55:27.685Z,1015.41
2022-10-06T04:56:13.919Z,1015.41
2022-10-06T04:56:59.719Z,1015.41
2022-10-06T04:57:45.679Z,1015.51
2022-10-06T04:58:32.031Z,1015.31
2022-10-06T04:59:17.735Z,1015.31
2022-10-06T05:00:08.832Z,1015.41
2022-10-06T05:00:49.758Z,1015.51
2022-10-06T05:01:35.803Z,1015.61
2022-10-06T05:02:21.874Z,1015.51
2022-10-06T05:03:07.859Z,1015.51
2022-10-06T05:03:53.706Z,1015.41
2022-10-06T05:04:39.721Z,1015.61
2022-10-06T05:05:25.864Z,1015.81
2022-10-06T05:06:11.845Z,1015.81
2022-10-06T05:06:57.762Z,1015.61
2022-10-06T05:07:44.047Z,1015.61
2022-10-06T05:08:30.029Z,1015.71
2022-10-06T05:09:15.892Z,1015.71
2022-10-06T05:10:01.884Z,1015.71
2022-10-06T05:10:47.745Z,1015.61
2022-10-06T05:11:33.748Z,1015.51
2022-10-06T05:12:19.748Z,1015.51
2022-10-06T05:13:05.784Z,1015.81
2022-10-06T05:13:51.848Z,1015.61
2022-10-06T05:14:37.811Z,1015.81
2022-10-06T05:15:23.890Z,1015.71
2022-10-06T05:16:09.817Z,1015.71
2022-10-06T05:16:55.846Z,1015.81
2022-10-06T05:17:41.831Z,1015.98
2022-10-06T05:18:28.086Z,1015.92
2022-10-06T05:19:14.006Z,1015.92
2022-10-06T05:19:59.783Z,1015.81
2022-10-06T05:20:45.811Z,1015.92
2022-10-06T05:21:31.836Z,1015.98
2022-10-06T05:22:17.815Z,1015.98
2022-10-06T05:23:03.833Z,1015.81
2022-10-06T05:23:49.823Z,1015.71
2022-10-06T05:24:35.896Z,1015.81
2022-10-06T05:25:21.869Z,1015.71
2022-10-06T05:26:07.857Z,1015.71
2022-10-06T05:26:56.344Z,1015.81
2022-10-06T05:27:39.835Z,1015.81
2022-10-06T05:28:26.161Z,1015.98
2022-10-06T05:29:11.871Z,1015.98
2022-10-06T05:29:57.878Z,1015.98
2022-10-06T05:30:44.155Z,1015.98
2022-10-06T05:31:29.987Z,1015.92
2022-10-06T05:32:15.846Z,1015.92
2022-10-06T05:33:02.048Z,1015.98
2022-10-06T05:33:47.857Z,1016.19
2022-10-06T05:34:33.904Z,1016.08
2022-10-06T05:35:19.891Z,1016.08
2022-10-06T05:36:05.974Z,1015.98
2022-10-06T05:36:51.924Z,1015.98
2022-10-06T05:37:37.892Z,1016.08
2022-10-06T05:38:23.871Z,1016.08
2022-10-06T05:39:09.875Z,1016.08
2022-10-06T05:39:55.927Z,1016.08
2022-10-06T05:40:41.911Z,1016.08
2022-10-06T05:41:27.929Z,1016.08
2022-10-06T05:42:14.014Z,1016.08
2022-10-06T05:42:59.993Z,1016.08
2022-10-06T05:43:45.931Z,1015.98
2022-10-06T05:44:32.015Z,1016.39
2022-10-06T05:45:18.022Z,1016.39
2022-10-06T05:46:03.984Z,1016.39
2022-10-06T05:46:50.028Z,1016.59
2022-10-06T05:47:35.989Z,1016.29
2022-10-06T05:48:22.101Z,1016.49
2022-10-06T05:49:08.028Z,1016.49
2022-10-06T05:49:54.033Z,1016.39
2022-10-06T05:50:39.962Z,1016.29
2022-10-06T05:51:30.400Z,1016.39
2022-10-06T05:52:12.015Z,1016.39
2022-10-06T05:52:58.012Z,1016.59
2022-10-06T05:53:44.124Z,1016.39
2022-10-06T05:54:30.028Z,1016.29
2022-10-06T05:55:15.975Z,1016.29
2022-10-06T05:56:02.158Z,1016.80
2022-10-06T05:56:48.074Z,1016.49
2022-10-06T05:57:34.089Z,1016.59
2022-10-06T05:58:20.061Z,1016.59
2022-10-06T05:59:06.042Z,1016.59
2022-10-06T05:59:52.038Z,1016.49
2022-10-06T06:00:38.128Z,1016.69
2022-10-06T06:01:24.106Z,1016.59
2022-10-06T06:02:10.162Z,1016.59
2022-10-06T06:02:56.120Z,1016.59
2022-10-06T06:03:42.052Z,1016.49
2022-10-06T06:04:28.092Z,1016.69
2022-10-06T06:05:14.072Z,1016.69
2022-10-06T06:06:00.049Z,1016.59
2022-10-06T06:06:46.059Z,1016.59
2022-10-06T06:07:32.130Z,1016.80
2022-10-06T06:08:18.074Z,1016.80
2022-10-06T06:09:04.117Z,1016.59
2022-10-06T06:09:50.045Z,1016.80
2022-10-06T06:10:36.161Z,1016.69
2022-10-06T06:11:22.116Z,1016.90
2022-10-06T06:12:08.123Z,1016.90
2022-10-06T06:12:54.130Z,1016.90
2022-10-06T06:13:40.094Z,1016.69
2022-10-06T06:14:26.081Z,1017.00
2022-10-06T06:15:12.290Z,1017.00
2022-10-06T06:15:58.089Z,1016.69
2022-10-06T06:16:44.161Z,1017.00
2022-10-06T06:17:30.202Z,1016.80
2022-10-06T06:18:16.197Z,1016.80
2022-10-06T06:19:02.235Z,1016.69
2022-10-06T06:19:48.214Z,1016.90
2022-10-06T06:20:34.203Z,1016.80
2022-10-06T06:21:20.168Z,1016.80
2022-10-06T06:22:06.196Z,1016.80
2022-10-06T06:22:52.301Z,1016.90
2022-10-06T06:23:38.139Z,1017.10
2022-10-06T06:24:24.159Z,1017.00
2022-10-06T06:25:10.176Z,1017.00
2022-10-06T06:26:01.350Z,1017.10
2022-10-06T06:26:42.175Z,1017.00
2022-10-06T06:27:28.150Z,1017.10
2022-10-06T06:28:14.292Z,1017.10
2022-10-06T06:29:00.195Z,1017.00
2022-10-06T06:29:46.188Z,1017.00
2022-10-06T06:30:32.675Z,1017.30
2022-10-06T06:31:20.328Z,1017.30
2022-10-06T06:32:04.195Z,1017.10
2022-10-06T06:32:50.245Z,1017.10
2022-10-06T06:33:36.287Z,1017.30
2022-10-06T06:34:22.262Z,1017.30
2022-10-06T06:35:08.189Z,1017.30
2022-10-06T06:35:54.186Z,1017.20
2022-10-06T06:36:40.207Z,1017.51
2022-10-06T06:37:26.197Z,1017.41
2022-10-06T06:38:12.193Z,1017.41
2022-10-06T06:38:58.210Z,1017.20
2022-10-06T06:39:44.224Z,1017.30
2022-10-06T06:40:30.268Z,1017.20
2022-10-06T06:41:16.216Z,1017.20
2022-10-06T06:42:02.297Z,1017.41
2022-10-06T06:42:51.607Z,1017.41
2022-10-06T06:43:34.290Z,1017.30
2022-10-06T06:44:20.304Z,1017.30
2022-10-06T06:45:06.313Z,1017.51
2022-10-06T06:45:52.314Z,1017.61
2022-10-06T06:47:26.807Z,1017.71
2022-10-06T06:48:12.263Z,1017.71
2022-10-06T06:48:58.275Z,1017.61
2022-10-06T06:49:44.280Z,1017.51
2022-10-06T06:50:30.289Z,1017.81
2022-10-06T06:51:16.244Z,1017.81
2022-10-06T06:52:02.341Z,1017.81
2022-10-06T06:52:48.334Z,1017.51
2022-10-06T06:53:34.261Z,1017.41
2022-10-06T06:54:20.281Z,1017.41
2022-10-06T06:55:06.303Z,1017.61
2022-10-06T06:55:52.303Z,1017.61
2022-10-06T06:56:38.290Z,1017.81
2022-10-06T06:57:24.325Z,1017.81
2022-10-06T06:58:10.278Z,1017.81
2022-10-06T06:58:56.330Z,1017.61
2022-10-06T06:59:42.356Z,1017.91
2022-10-06T07:00:32.519Z,1017.91
2022-10-06T07:01:14.521Z,1017.91
2022-10-06T07:02:00.389Z,1018.01
2022-10-06T07:02:46.283Z,1018.01
2022-10-06T07:03:56.111Z,1017.91
2022-10-06T07:04:18.361Z,1017.91
2022-10-06T07:05:04.435Z,1018.01
2022-10-06T07:05:50.390Z,1017.81
2022-10-06T07:06:36.305Z,1018.01
2022-10-06T07:07:22.326Z,1018.01
2022-10-06T07:08:08.367Z,1018.01
2022-10-06T07:08:54.332Z,1017.71
2022-10-06T07:09:40.428Z,1018.01
2022-10-06T07:10:26.381Z,1018.01
2022-10-06T07:11:12.322Z,1018.01
2022-10-06T07:11:58.383Z,1018.01
2022-10-06T07:12:44.384Z,1018.01
2022-10-06T07:13:30.372Z,1018.01
2022-10-06T07:14:16.419Z,1018.01
2022-10-06T07:15:02.489Z,1018.18
2022-10-06T07:15:48.444Z,1018.08
2022-10-06T07:16:34.356Z,1018.01
2022-10-06T07:17:20.426Z,1018.01
2022-10-06T07:18:06.387Z,1017.81
2022-10-06T07:19:42.539Z,1017.81
2022-10-06T07:19:58.481Z,1018.29
2022-10-06T07:20:44.441Z,1018.08
2022-10-06T07:21:30.460Z,1018.01
2022-10-06T07:22:16.387Z,1018.01
2022-10-06T07:23:02.468Z,1018.08
2022-10-06T07:23:48.416Z,1018.08
2022-10-06T07:24:34.402Z,1018.08
2022-10-06T07:25:25.150Z,1018.08
2022-10-06T07:26:06.439Z,1018.39
2022-10-06T07:26:52.489Z,1018.29
2022-10-06T07:27:38.463Z,1018.08
2022-10-06T07:28:24.504Z,1018.08
2022-10-06T07:29:10.401Z,1018.08
2022-10-06T07:29:56.833Z,1018.18
2022-10-06T07:30:42.556Z,1018.39
2022-10-06T07:31:28.520Z,1018.18
2022-10-06T07:32:14.425Z,1018.18
2022-10-06T07:33:00.598Z,1018.18
2022-10-06T07:33:46.488Z,1018.39
2022-10-06T07:34:32.508Z,1018.29
2022-10-06T07:35:18.528Z,1018.29
2022-10-06T07:36:04.572Z,1018.49
2022-10-06T07:36:50.444Z,1018.39
2022-10-06T07:37:36.541Z,1018.39
2022-10-06T07:38:22.443Z,1018.39
2022-10-06T07:39:08.540Z,1018.39
2022-10-06T07:39:54.480Z,1018.39
2022-10-06T07:40:46.240Z,1018.18
2022-10-06T07:41:26.507Z,1018.39
2022-10-06T07:42:12.525Z,1018.39
2022-10-06T07:42:58.509Z,1018.39
2022-10-06T07:43:44.479Z,1018.59
2022-10-06T07:44:30.535Z,1018.49
2022-10-06T07:45:16.656Z,1018.49
2022-10-06T07:46:02.668Z,1018.29
2022-10-06T07:46:48.497Z,1018.29
2022-10-06T07:47:34.517Z,1018.69
2022-10-06T07:48:20.523Z,1018.69
2022-10-06T07:49:06.667Z,1018.39
2022-10-06T07:49:52.572Z,1018.49
2022-10-06T07:50:38.522Z,1018.49
2022-10-06T07:51:24.508Z,1018.59
2022-10-06T07:52:10.576Z,1018.59
2022-10-06T07:52:56.664Z,1018.49
2022-10-06T07:53:42.551Z,1018.59
2022-10-06T07:54:28.672Z,1018.69
2022-10-06T07:55:14.572Z,1018.69
2022-10-06T07:56:00.543Z,1018.69
2022-10-06T07:56:46.685Z,1018.59
2022-10-06T07:57:32.561Z,1018.49
2022-10-06T07:58:18.674Z,1018.49
2022-10-06T07:59:04.542Z,1018.79
2022-10-06T07:59:50.587Z,1018.79
2022-10-06T08:00:36.709Z,1018.49
2022-10-06T08:01:22.624Z,1018.69
2022-10-06T08:02:08.737Z,1018.69
2022-10-06T08:02:54.686Z,1018.39
2022-10-06T08:03:40.634Z,1018.69
2022-10-06T08:04:26.652Z,1018.59
2022-10-06T08:05:12.630Z,1018.59
2022-10-06T08:05:58.703Z,1018.39
2022-10-06T08:06:44.691Z,1018.69
2022-10-06T08:07:30.701Z,1019.00
2022-10-06T08:08:16.665Z,1019.00
2022-10-06T08:09:02.674Z,1018.59
2022-10-06T08:09:48.813Z,1018.79
2022-10-06T08:10:34.647Z,1018.90
2022-10-06T08:11:20.680Z,1018.90
2022-10-06T08:12:06.688Z,1018.79
2022-10-06T08:12:52.663Z,1018.69
2022-10-06T08:13:38.719Z,1018.59
2022-10-06T08:14:24.666Z,1018.79
2022-10-06T08:15:10.756Z,1018.79
2022-10-06T08:15:56.824Z,1018.59
2022-10-06T08:16:42.690Z,1018.79
2022-10-06T08:17:28.709Z,1018.79
2022-10-06T08:18:33.673Z,1018.79
2022-10-06T08:19:00.649Z,1018.69
2022-10-06T08:19:47.303Z,1018.79
2022-10-06T08:20:33.055Z,1018.90
2022-10-06T08:21:18.752Z,1018.90
2022-10-06T08:22:05.028Z,1019.00
2022-10-06T08:22:50.687Z,1018.59
2022-10-06T08:23:36.771Z,1018.59
2022-10-06T08:24:22.743Z,1018.90
2022-10-06T08:25:08.789Z,1018.90
2022-10-06T08:25:54.728Z,1018.79
2022-10-06T08:26:40.812Z,1018.69
2022-10-06T08:27:26.702Z,1019.00
2022-10-06T08:28:12.798Z,1019.00
2022-10-06T08:28:58.788Z,1019.00
2022-10-06T08:29:44.765Z,1019.20
2022-10-06T08:30:30.777Z,1019.00
2022-10-06T08:31:16.875Z,1019.00
2022-10-06T08:32:02.837Z,1019.20
2022-10-06T08:32:48.803Z,1018.69
2022-10-06T08:33:34.753Z,1019.00
2022-10-06T08:34:20.941Z,1019.00
2022-10-06T08:35:06.767Z,1019.00
2022-10-06T08:35:52.776Z,1018.90
2022-10-06T08:36:38.752Z,1019.10
2022-10-06T08:37:24.758Z,1019.00
2022-10-06T08:38:10.781Z,1019.00
2022-10-06T08:38:56.779Z,1019.00
2022-10-06T08:39:42.747Z,1019.20
2022-10-06T08:40:28.861Z,1018.79
2022-10-06T08:41:14.807Z,1018.79
2022-10-06T08:42:00.833Z,1018.90
2022-10-06T08:42:47.364Z,1018.90
2022-10-06T08:43:32.892Z,1018.79
2022-10-06T08:44:18.867Z,1018.79
2022-10-06T08:45:04.923Z,1019.10
2022-10-06T08:45:50.982Z,1019.00
2022-10-06T08:46:36.858Z,1018.90
2022-10-06T08:47:22.933Z,1018.79
2022-10-06T08:48:08.939Z,1018.79
2022-10-06T08:48:54.925Z,1019.10
2022-10-06T08:49:40.992Z,1019.00
2022-10-06T08:50:26.968Z,1019.30
2022-10-06T08:51:13.022Z,1019.30
2022-10-06T08:51:58.992Z,1019.00
2022-10-06T08:52:44.940Z,1019.00
2022-10-06T08:53:30.937Z,1018.90
2022-10-06T08:54:16.961Z,1018.90
2022-10-06T08:55:03.167Z,1019.20
2022-10-06T08:55:49.023Z,1019.00
2022-10-06T08:56:34.966Z,1019.30
2022-10-06T08:57:20.949Z,1019.30
2022-10-06T08:58:06.914Z,1019.20
2022-10-06T08:58:53.158Z,1019.10
2022-10-06T08:59:38.930Z,1019.30
2022-10-06T09:00:25.038Z,1018.90
2022-10-06T09:01:11.125Z,1018.90
2022-10-06T09:01:57.058Z,1019.10
2022-10-06T09:02:43.075Z,1019.00
2022-10-06T09:03:29.057Z,1019.10
2022-10-06T09:04:15.017Z,1019.10
2022-10-06T09:05:01.005Z,1019.20
2022-10-06T09:07:19.152Z,1019.30
2022-10-06T09:08:05.040Z,1019.20
2022-10-06T09:08:51.140Z,1019.30
2022-10-06T09:09:36.945Z,1019.30
2022-10-06T09:10:23.035Z,1019.30
2022-10-06T09:11:09.004Z,1019.30
2022-10-06T09:11:55.009Z,1019.00
2022-10-06T09:12:41.055Z,1019.20
2022-10-06T09:13:27.072Z,1019.10
2022-10-06T09:14:13.003Z,1019.10
2022-10-06T09:14:59.184Z,1019.20
2022-10-06T09:15:45.176Z,1019.10
2022-10-06T09:16:31.393Z,1019.30
2022-10-06T09:17:17.009Z,1019.30
2022-10-06T09:18:03.054Z,1019.20
2022-10-06T09:19:07.816Z,1019.20